Time;durP1;ratioP1;P1;durP2;ratioP2;P2;SDS_P1;SDS_P2;PMS_P1;PMS_P2;Temp;Humidity;BMP_temperature;BMP_pressure;BME280_temperature;BME280_humidity;BME280_pressure;Samples;Min_cycle;Max_cycle;Signal;HPM_P1;HPM_P2
2022/03/07 04:58:28;;;;;;;9.58;7.62;;;;;;;;;;802269;73;26211;-73
2022/03/07 04:59:33;;;;;;;11.65;7.80;;;;;;;;;;801888;73;26243;-75
2022/03/07 05:00:35;;;;;;;10.45;8.03;;;;;;;;;;799476;73;26369;-75
2022/03/07 05:01:38;;;;;;;10.50;8.15;;;;;;;;;;802481;73;26293;-75
2022/03/07 05:02:50;;;;;;;11.38;7.92;;;;;;;;;;834891;71;30338;-76
2022/03/07 05:03:53;;;;;;;12.43;8.50;;;;;;;;;;822542;72;26288;-75
2022/03/07 05:08:28;;;;;;;8.10;6.80;;;;;;;;;;752454;79;26313;-77
2022/03/07 05:11:14;;;;;;;9.60;6.60;;;;;;;;;;728843;80;26367;-75
2022/03/07 05:12:18;;;;;;;9.03;6.75;;;;;;;;;;728902;81;26719;-76
2022/03/07 05:13:20;;;;;;;8.23;7.20;;;;;;;;;;728834;81;26723;-74
2022/03/07 05:17:56;;;;;;;8.98;6.10;;;;;;;;;;743061;78;26298;-77
2022/03/07 05:19:00;;;;;;;9.60;7.50;;;;;;;;;;753291;78;26252;-79
2022/03/07 05:20:04;;;;;;;10.70;6.75;;;;;;;;;;753737;78;26298;-77
2022/03/07 05:21:07;;;;;;;7.40;6.70;;;;;;;;;;753900;78;26272;-77
2022/03/07 05:22:09;;;;;;;7.78;6.72;;;;;;;;;;753597;79;26319;-76
2022/03/07 05:23:12;;;;;;;8.20;7.40;;;;;;;;;;735183;81;26265;-76
2022/03/07 05:28:04;;;;;;;8.15;6.22;;;;;;;;;;779570;74;26271;-77
2022/03/07 05:29:08;;;;;;;8.65;6.65;;;;;;;;;;774981;74;26325;-78
2022/03/07 05:30:15;;;;;;;8.00;6.95;;;;;;;;;;775004;76;26297;-77
2022/03/07 05:31:17;;;;;;;9.33;8.28;;;;;;;;;;774310;76;24249;-77
2022/03/07 05:32:21;;;;;;;7.83;6.53;;;;;;;;;;773986;76;26247;-76
2022/03/07 05:33:24;;;;;;;8.08;6.42;;;;;;;;;;774171;76;26305;-76
2022/03/07 05:37:57;;;;;;;8.65;6.53;;;;;;;;;;791165;73;26217;-75
2022/03/07 05:39:03;;;;;;;9.00;6.95;;;;;;;;;;791474;75;26220;-76
2022/03/07 05:40:06;;;;;;;9.20;7.42;;;;;;;;;;791211;75;26658;-76
2022/03/07 05:41:12;;;;;;;9.08;7.72;;;;;;;;;;791335;75;26274;-76
2022/03/07 05:50:55;;;;;;;9.20;6.58;;;;;;;;;;778140;74;26239;-76
2022/03/07 05:51:59;;;;;;;7.10;6.40;;;;;;;;;;778219;76;26749;-77
2022/03/07 05:53:01;;;;;;;9.43;7.12;;;;;;;;;;778219;76;26414;-75
2022/03/07 05:54:04;;;;;;;10.65;7.12;;;;;;;;;;778220;76;26243;-76
2022/03/07 05:56:34;;;;;;;9.03;7.20;;;;;;;;;;808037;72;26225;-76
2022/03/07 05:57:37;;;;;;;8.13;6.80;;;;;;;;;;805726;73;26356;-77
2022/03/07 05:58:39;;;;;;;10.08;7.60;;;;;;;;;;805794;73;26275;-77
2022/03/07 05:59:42;;;;;;;7.80;6.55;;;;;;;;;;805668;73;26288;-76
2022/03/07 06:00:45;;;;;;;8.35;6.65;;;;;;;;;;805708;73;26674;-76
2022/03/07 06:01:47;;;;;;;6.78;6.08;;;;;;;;;;805746;73;26270;-78
2022/03/07 06:02:50;;;;;;;8.63;6.85;;;;;;;;;;805750;73;26772;-76
2022/03/07 06:03:53;;;;;;;8.48;7.55;;;;;;;;;;805794;73;26682;-76
2022/03/07 06:07:09;;;;;;;9.63;7.12;;;;;;;;;;745364;77;26306;-77
2022/03/07 06:08:12;;;;;;;9.70;7.33;;;;;;;;;;740227;80;26346;-76
2022/03/07 06:09:15;;;;;;;8.65;7.60;;;;;;;;;;740892;80;26275;-75
2022/03/07 06:10:20;;;;;;;8.90;7.58;;;;;;;;;;740958;80;26735;-76
2022/03/07 06:11:23;;;;;;;9.23;7.45;;;;;;;;;;740705;80;26818;-76
2022/03/07 06:12:26;;;;;;;10.65;7.70;;;;;;;;;;740784;80;26275;-78
2022/03/07 06:13:31;;;;;;;12.63;8.95;;;;;;;;;;740715;80;26732;-76
2022/03/07 06:18:02;;;;;;;10.95;8.35;;;;;;;;;;743948;78;26227;-76
2022/03/07 06:19:06;;;;;;;10.78;9.25;;;;;;;;;;741149;80;26274;-76
2022/03/07 06:20:09;;;;;;;12.03;9.23;;;;;;;;;;741105;80;26426;-76
2022/03/07 06:21:12;;;;;;;10.63;8.63;;;;;;;;;;741097;80;26268;-78
2022/03/07 06:22:15;;;;;;;10.20;8.30;;;;;;;;;;741235;80;26256;-75
2022/03/07 06:23:19;;;;;;;9.70;7.87;;;;;;;;;;741188;80;26283;-78
2022/03/07 06:29:36;;;;;;;13.58;9.00;;;;;;;;;;716639;81;24222;-76
2022/03/07 06:30:38;;;;;;;9.83;8.48;;;;;;;;;;718314;82;26806;-77
2022/03/07 06:31:41;;;;;;;10.15;9.05;;;;;;;;;;717680;82;26748;-78
2022/03/07 06:32:46;;;;;;;13.48;9.00;;;;;;;;;;714615;83;26323;-77
2022/03/07 06:41:12;;;;;;;9.60;8.40;;;;;;;;;;820814;71;26190;-77
2022/03/07 06:42:15;;;;;;;10.78;9.65;;;;;;;;;;822324;72;26263;-78
2022/03/07 06:43:18;;;;;;;14.78;9.23;;;;;;;;;;823445;71;26203;-77
2022/03/07 06:46:29;;;;;;;14.83;10.08;;;;;;;;;;783580;74;26310;-75
2022/03/07 06:47:37;;;;;;;12.58;9.80;;;;;;;;;;782700;76;26247;-76
2022/03/07 06:48:41;;;;;;;12.15;9.30;;;;;;;;;;782758;76;26317;-76
2022/03/07 06:49:48;;;;;;;12.63;9.53;;;;;;;;;;781681;76;26293;-75
2022/03/07 06:50:50;;;;;;;12.10;9.98;;;;;;;;;;750643;79;26314;-76
2022/03/07 06:51:53;;;;;;;11.65;9.28;;;;;;;;;;751154;77;26264;-77
2022/03/07 06:52:56;;;;;;;13.20;10.50;;;;;;;;;;763442;77;26305;-75
2022/03/07 06:57:41;;;;;;;13.25;9.53;;;;;;;;;;748985;79;26704;-77
2022/03/07 06:58:46;;;;;;;12.18;9.80;;;;;;;;;;755762;78;26242;-78
2022/03/07 06:59:50;;;;;;;11.53;8.98;;;;;;;;;;763041;78;26264;-75
2022/03/07 07:00:53;;;;;;;11.15;8.83;;;;;;;;;;763122;78;26321;-75
2022/03/07 07:01:56;;;;;;;12.35;8.38;;;;;;;;;;763130;78;26256;-75
2022/03/07 07:03:02;;;;;;;8.15;7.33;;;;;;;;;;763054;78;24258;-74
2022/03/07 07:07:47;;;;;;;9.85;8.03;;;;;;;;;;760397;78;26256;-77
2022/03/07 07:08:50;;;;;;;11.12;7.62;;;;;;;;;;760498;78;26322;-78
2022/03/07 07:09:53;;;;;;;9.60;8.30;;;;;;;;;;760444;78;26331;-77
2022/03/07 07:10:56;;;;;;;8.35;7.37;;;;;;;;;;760476;78;26353;-76
2022/03/07 07:11:59;;;;;;;10.35;7.40;;;;;;;;;;760427;78;26706;-77
2022/03/07 07:13:02;;;;;;;8.85;7.20;;;;;;;;;;760466;78;26358;-77
2022/03/07 07:16:08;;;;;;;7.62;6.37;;;;;;;;;;760788;78;26611;-77
2022/03/07 07:17:11;;;;;;;7.25;6.37;;;;;;;;;;759754;78;26311;-77
2022/03/07 07:18:15;;;;;;;7.37;6.40;;;;;;;;;;762930;78;26774;-77
2022/03/07 07:19:17;;;;;;;7.05;6.40;;;;;;;;;;780496;76;26682;-79
2022/03/07 07:20:20;;;;;;;7.70;6.55;;;;;;;;;;761961;78;26689;-77
2022/03/07 07:21:23;;;;;;;8.33;6.92;;;;;;;;;;758656;78;26712;-77
2022/03/07 07:30:55;;;;;;;7.97;6.72;;;;;;;;;;786597;75;26721;-77
2022/03/07 07:32:02;;;;;;;8.88;7.72;;;;;;;;;;786848;75;24640;-77
2022/03/07 07:33:04;;;;;;;8.85;6.75;;;;;;;;;;786883;75;26229;-78
2022/03/07 07:36:12;;;;;;;8.13;6.92;;;;;;;;;;775860;76;26185;-77
2022/03/07 07:37:16;;;;;;;7.85;7.00;;;;;;;;;;744186;78;26261;-78
2022/03/07 07:38:24;;;;;;;7.50;6.50;;;;;;;;;;763563;77;26723;-78
2022/03/07 07:39:27;;;;;;;7.20;6.50;;;;;;;;;;748444;79;24294;-78
2022/03/07 07:40:29;;;;;;;8.50;7.60;;;;;;;;;;742901;80;26331;-80
2022/03/07 07:41:34;;;;;;;9.40;7.97;;;;;;;;;;762961;78;26248;-77
2022/03/07 07:42:36;;;;;;;8.93;7.67;;;;;;;;;;763299;78;26256;-78
2022/03/07 07:45:43;;;;;;;7.85;7.15;;;;;;;;;;763038;77;26274;-79
2022/03/07 07:46:47;;;;;;;8.30;7.47;;;;;;;;;;768783;77;26256;-77
2022/03/07 07:47:51;;;;;;;10.15;8.15;;;;;;;;;;760006;78;26262;-77
2022/03/07 07:48:53;;;;;;;10.45;8.58;;;;;;;;;;753351;79;26709;-76
2022/03/07 07:49:56;;;;;;;8.43;7.62;;;;;;;;;;751901;78;26431;-77
2022/03/07 07:50:59;;;;;;;8.03;6.87;;;;;;;;;;751150;77;26276;-79
2022/03/07 07:52:02;;;;;;;8.98;6.97;;;;;;;;;;766061;77;26267;-76
2022/03/07 07:58:22;;;;;;;9.95;7.60;;;;;;;;;;772749;76;26285;-74
2022/03/07 07:59:28;;;;;;;8.80;7.90;;;;;;;;;;776632;76;26287;-74
2022/03/07 08:00:31;;;;;;;7.97;7.17;;;;;;;;;;778598;76;26233;-74
2022/03/07 08:01:36;;;;;;;8.63;7.70;;;;;;;;;;778168;76;26736;-75
2022/03/07 08:02:41;;;;;;;7.95;6.80;;;;;;;;;;778527;76;26238;-73
2022/03/07 08:06:02;;;;;;;8.83;7.42;;;;;;;;;;778872;76;26158;-74
2022/03/07 08:07:07;;;;;;;7.47;6.78;;;;;;;;;;765500;77;26248;-75
2022/03/07 08:08:11;;;;;;;8.40;7.50;;;;;;;;;;764890;77;26704;-74
2022/03/07 08:09:16;;;;;;;7.92;7.00;;;;;;;;;;762019;77;26712;-74
2022/03/07 08:10:19;;;;;;;8.60;7.40;;;;;;;;;;764963;77;26708;-75
2022/03/07 08:11:24;;;;;;;8.28;7.42;;;;;;;;;;765460;77;26697;-74
2022/03/07 08:12:28;;;;;;;8.00;6.90;;;;;;;;;;751937;78;26259;-75
2022/03/07 08:21:47;;;;;;;7.55;6.78;;;;;;;;;;748600;78;24642;-75
